sensor_id;sensor_type;location;lat;lon;timestamp;pressure;altitude;pressure_sealevel;temperature;humidity
78488;BME280;67885;49.758;9.582;2023-07-13T00:02:21;99019.75;;;25.64;35.79
78488;BME280;67885;49.758;9.582;2023-07-13T00:04:48;99058.53;;;25.83;35.50
78488;BME280;67885;49.758;9.582;2023-07-13T00:07:14;99048.16;;;25.80;36.25
78488;BME280;67885;49.758;9.582;2023-07-13T00:09:41;99052.16;;;25.77;35.64
78488;BME280;67885;49.758;9.582;2023-07-13T00:12:24;99050.94;;;25.73;35.91
78488;BME280;67885;49.758;9.582;2023-07-13T00:14:51;99058.72;;;25.69;35.88
78488;BME280;67885;49.758;9.582;2023-07-13T00:17:17;99057.94;;;25.62;35.45
78488;BME280;67885;49.758;9.582;2023-07-13T00:19:44;99047.56;;;25.59;35.36
78488;BME280;67885;49.758;9.582;2023-07-13T00:22:11;99054.25;;;25.56;35.67
78488;BME280;67885;49.758;9.582;2023-07-13T00:24:37;99058.25;;;25.54;36.03
78488;BME280;67885;49.758;9.582;2023-07-13T00:27:07;99060.13;;;25.53;36.00
78488;BME280;67885;49.758;9.582;2023-07-13T00:29:35;99043.47;;;25.50;34.54
78488;BME280;67885;49.758;9.582;2023-07-13T00:32:03;99042.50;;;25.44;35.33
78488;BME280;67885;49.758;9.582;2023-07-13T00:34:31;99041.28;;;25.40;35.89
78488;BME280;67885;49.758;9.582;2023-07-13T00:36:58;99059.44;;;25.39;35.89
78488;BME280;67885;49.758;9.582;2023-07-13T00:39:25;99061.53;;;25.37;35.56
78488;BME280;67885;49.758;9.582;2023-07-13T00:41:51;99064.03;;;25.32;35.39
78488;BME280;67885;49.758;9.582;2023-07-13T00:44:19;99015.19;;;24.95;35.07
78488;BME280;67885;49.758;9.582;2023-07-13T00:46:47;99036.25;;;25.18;35.62
78488;BME280;67885;49.758;9.582;2023-07-13T00:49:18;99043.38;;;25.13;35.87
78488;BME280;67885;49.758;9.582;2023-07-13T00:51:49;99040.28;;;25.09;36.32
78488;BME280;67885;49.758;9.582;2023-07-13T00:54:22;99053.00;;;25.08;35.86
78488;BME280;67885;49.758;9.582;2023-07-13T00:56:53;99006.53;;;24.80;36.51
78488;BME280;67885;49.758;9.582;2023-07-13T00:59:21;99054.91;;;25.01;35.73
78488;BME280;67885;49.758;9.582;2023-07-13T01:01:49;99053.34;;;24.94;35.92
78488;BME280;67885;49.758;9.582;2023-07-13T01:04:16;99076.91;;;24.86;36.42
78488;BME280;67885;49.758;9.582;2023-07-13T01:06:44;99046.63;;;24.71;36.56
78488;BME280;67885;49.758;9.582;2023-07-13T01:09:13;99060.13;;;24.78;36.94
78488;BME280;67885;49.758;9.582;2023-07-13T01:11:41;99029.03;;;24.48;36.19
78488;BME280;67885;49.758;9.582;2023-07-13T01:14:10;99068.06;;;24.72;36.81
78488;BME280;67885;49.758;9.582;2023-07-13T01:16:39;99063.09;;;24.69;37.57
78488;BME280;67885;49.758;9.582;2023-07-13T01:19:19;99074.16;;;24.68;37.64
78488;BME280;67885;49.758;9.582;2023-07-13T01:21:52;98968.28;;;24.05;37.98
78488;BME280;67885;49.758;9.582;2023-07-13T01:24:19;99071.03;;;24.64;37.35
78488;BME280;67885;49.758;9.582;2023-07-13T01:26:46;99071.44;;;24.61;37.49
78488;BME280;67885;49.758;9.582;2023-07-13T01:29:13;99066.03;;;24.61;37.98
78488;BME280;67885;49.758;9.582;2023-07-13T01:31:39;99075.63;;;24.57;36.94
78488;BME280;67885;49.758;9.582;2023-07-13T01:34:06;99065.44;;;24.52;36.80
78488;BME280;67885;49.758;9.582;2023-07-13T01:36:33;99073.78;;;24.51;36.48
78488;BME280;67885;49.758;9.582;2023-07-13T01:39:01;99070.72;;;24.47;37.60
78488;BME280;67885;49.758;9.582;2023-07-13T01:41:28;99051.66;;;24.22;37.61
78488;BME280;67885;49.758;9.582;2023-07-13T01:43:54;99074.69;;;24.45;37.72
78488;BME280;67885;49.758;9.582;2023-07-13T01:46:21;99053.94;;;24.25;37.01
78488;BME280;67885;49.758;9.582;2023-07-13T01:48:48;99088.66;;;24.35;37.62
78488;BME280;67885;49.758;9.582;2023-07-13T01:51:15;99091.78;;;24.32;37.37
78488;BME280;67885;49.758;9.582;2023-07-13T01:53:42;99099.09;;;24.31;37.53
78488;BME280;67885;49.758;9.582;2023-07-13T01:56:10;99096.59;;;24.30;36.92
78488;BME280;67885;49.758;9.582;2023-07-13T01:58:36;99085.41;;;24.19;36.46
78488;BME280;67885;49.758;9.582;2023-07-13T02:01:03;99093.31;;;24.21;36.99
78488;BME280;67885;49.758;9.582;2023-07-13T02:03:30;99106.22;;;24.19;36.81
78488;BME280;67885;49.758;9.582;2023-07-13T02:05:56;99104.38;;;24.13;37.35
78488;BME280;67885;49.758;9.582;2023-07-13T02:08:23;99091.53;;;23.88;36.74
78488;BME280;67885;49.758;9.582;2023-07-13T02:10:50;99105.41;;;24.05;36.38
78488;BME280;67885;49.758;9.582;2023-07-13T02:13:18;99103.38;;;24.00;36.55
78488;BME280;67885;49.758;9.582;2023-07-13T02:15:45;99100.91;;;23.92;36.64
78488;BME280;67885;49.758;9.582;2023-07-13T02:18:11;99102.78;;;23.85;37.90
78488;BME280;67885;49.758;9.582;2023-07-13T02:20:42;99097.16;;;23.80;38.76
78488;BME280;67885;49.758;9.582;2023-07-13T02:23:09;99104.25;;;23.74;38.77
78488;BME280;67885;49.758;9.582;2023-07-13T02:25:35;99105.50;;;23.71;38.41
78488;BME280;67885;49.758;9.582;2023-07-13T02:28:02;99103.84;;;23.70;38.27
78488;BME280;67885;49.758;9.582;2023-07-13T02:30:31;99102.59;;;23.66;37.75
78488;BME280;67885;49.758;9.582;2023-07-13T02:32:58;99112.97;;;23.63;38.55
78488;BME280;67885;49.758;9.582;2023-07-13T02:35:24;98998.50;;;22.90;38.15
78488;BME280;67885;49.758;9.582;2023-07-13T02:37:51;99098.44;;;23.57;40.16
78488;BME280;67885;49.758;9.582;2023-07-13T02:40:19;99109.84;;;23.72;40.09
78488;BME280;67885;49.758;9.582;2023-07-13T02:42:46;99049.59;;;23.45;40.00
78488;BME280;67885;49.758;9.582;2023-07-13T02:45:12;99109.59;;;23.87;39.21
78488;BME280;67885;49.758;9.582;2023-07-13T02:47:41;99103.81;;;23.84;38.25
78488;BME280;67885;49.758;9.582;2023-07-13T02:50:09;99113.81;;;23.77;38.02
78488;BME280;67885;49.758;9.582;2023-07-13T02:52:35;99112.53;;;23.72;39.20
78488;BME280;67885;49.758;9.582;2023-07-13T02:55:02;99109.25;;;23.64;39.04
78488;BME280;67885;49.758;9.582;2023-07-13T02:57:29;99111.34;;;23.55;38.81
78488;BME280;67885;49.758;9.582;2023-07-13T02:59:58;99120.28;;;23.49;38.39
78488;BME280;67885;49.758;9.582;2023-07-13T03:02:25;99111.75;;;23.38;38.42
78488;BME280;67885;49.758;9.582;2023-07-13T03:04:55;99119.69;;;23.33;38.65
78488;BME280;67885;49.758;9.582;2023-07-13T03:07:22;99116.78;;;23.28;38.95
78488;BME280;67885;49.758;9.582;2023-07-13T03:09:55;99090.34;;;23.03;39.46
78488;BME280;67885;49.758;9.582;2023-07-13T03:12:23;99067.03;;;22.82;39.24
78488;BME280;67885;49.758;9.582;2023-07-13T03:14:50;99110.91;;;23.11;39.43
78488;BME280;67885;49.758;9.582;2023-07-13T03:17:17;99124.41;;;23.04;40.28
78488;BME280;67885;49.758;9.582;2023-07-13T03:19:44;99133.13;;;23.00;40.19
78488;BME280;67885;49.758;9.582;2023-07-13T03:22:16;99132.69;;;22.96;40.32
78488;BME280;67885;49.758;9.582;2023-07-13T03:24:43;99129.38;;;22.94;39.30
78488;BME280;67885;49.758;9.582;2023-07-13T03:27:10;99133.94;;;22.94;39.58
78488;BME280;67885;49.758;9.582;2023-07-13T03:29:37;99144.13;;;22.92;39.75
78488;BME280;67885;49.758;9.582;2023-07-13T03:32:05;99148.88;;;22.89;40.29
78488;BME280;67885;49.758;9.582;2023-07-13T03:34:32;99152.00;;;22.86;39.73
78488;BME280;67885;49.758;9.582;2023-07-13T03:36:59;99155.13;;;22.83;40.31
78488;BME280;67885;49.758;9.582;2023-07-13T03:39:27;98912.69;;;20.51;40.57
78488;BME280;67885;49.758;9.582;2023-07-13T03:41:55;98972.94;;;21.70;39.94
78488;BME280;67885;49.758;9.582;2023-07-13T03:57:20;99183.28;;;22.61;42.81
78488;BME280;67885;49.758;9.582;2023-07-13T03:59:47;99183.94;;;22.63;41.58
78488;BME280;67885;49.758;9.582;2023-07-13T04:02:14;99185.81;;;22.69;42.19
78488;BME280;67885;49.758;9.582;2023-07-13T04:04:40;99182.31;;;22.75;42.42
78488;BME280;67885;49.758;9.582;2023-07-13T04:07:07;99180.03;;;22.79;41.83
78488;BME280;67885;49.758;9.582;2023-07-13T04:09:34;99185.44;;;22.85;42.13
78488;BME280;67885;49.758;9.582;2023-07-13T04:12:01;99186.50;;;22.91;41.24
78488;BME280;67885;49.758;9.582;2023-07-13T04:14:29;99193.78;;;22.97;41.92
78488;BME280;67885;49.758;9.582;2023-07-13T04:16:56;99195.47;;;23.05;41.68
78488;BME280;67885;49.758;9.582;2023-07-13T04:19:23;99193.00;;;23.10;40.71
78488;BME280;67885;49.758;9.582;2023-07-13T04:21:49;99197.81;;;23.15;41.91
78488;BME280;67885;49.758;9.582;2023-07-13T04:24:16;99201.75;;;23.19;41.16
78488;BME280;67885;49.758;9.582;2023-07-13T04:26:43;99204.47;;;23.19;40.40
78488;BME280;67885;49.758;9.582;2023-07-13T04:29:09;99203.00;;;23.16;40.75
78488;BME280;67885;49.758;9.582;2023-07-13T04:31:37;99204.41;;;23.12;41.93
78488;BME280;67885;49.758;9.582;2023-07-13T04:34:04;99203.16;;;23.08;42.17
78488;BME280;67885;49.758;9.582;2023-07-13T04:36:31;99201.69;;;23.05;41.84
78488;BME280;67885;49.758;9.582;2023-07-13T04:38:57;99213.53;;;23.04;40.82
78488;BME280;67885;49.758;9.582;2023-07-13T04:41:24;99215.63;;;23.02;40.47
78488;BME280;67885;49.758;9.582;2023-07-13T04:43:50;99217.47;;;23.02;40.54
78488;BME280;67885;49.758;9.582;2023-07-13T04:46:17;99210.00;;;22.97;41.22
78488;BME280;67885;49.758;9.582;2023-07-13T04:48:46;99218.28;;;22.89;41.13
78488;BME280;67885;49.758;9.582;2023-07-13T04:51:16;99214.53;;;22.83;42.21
78488;BME280;67885;49.758;9.582;2023-07-13T04:53:42;99214.53;;;22.83;42.73
78488;BME280;67885;49.758;9.582;2023-07-13T04:56:09;99214.31;;;22.85;43.08
78488;BME280;67885;49.758;9.582;2023-07-13T04:58:36;99217.03;;;22.85;42.79
78488;BME280;67885;49.758;9.582;2023-07-13T05:01:04;99183.88;;;22.49;43.13
78488;BME280;67885;49.758;9.582;2023-07-13T05:03:31;99219.94;;;22.83;43.31
78488;BME280;67885;49.758;9.582;2023-07-13T05:06:01;99172.22;;;22.49;43.48
78488;BME280;67885;49.758;9.582;2023-07-13T05:08:29;99226.34;;;22.82;43.49
78488;BME280;67885;49.758;9.582;2023-07-13T05:10:56;99223.41;;;22.70;43.93
78488;BME280;67885;49.758;9.582;2023-07-13T05:13:22;99224.91;;;22.86;43.34
78488;BME280;67885;49.758;9.582;2023-07-13T05:15:56;99244.63;;;22.87;43.32
78488;BME280;67885;49.758;9.582;2023-07-13T05:18:23;99233.47;;;22.90;42.49
78488;BME280;67885;49.758;9.582;2023-07-13T05:20:57;99237.41;;;22.94;43.14
78488;BME280;67885;49.758;9.582;2023-07-13T05:23:25;99243.06;;;22.99;42.44
78488;BME280;67885;49.758;9.582;2023-07-13T05:25:52;99242.22;;;23.05;43.40
78488;BME280;67885;49.758;9.582;2023-07-13T05:28:19;99234.59;;;23.16;42.40
78488;BME280;67885;49.758;9.582;2023-07-13T05:30:46;99238.28;;;23.08;40.59
78488;BME280;67885;49.758;9.582;2023-07-13T05:33:13;99235.22;;;23.24;40.43
78488;BME280;67885;49.758;9.582;2023-07-13T05:35:40;99234.81;;;23.28;41.13
78488;BME280;67885;49.758;9.582;2023-07-13T05:38:07;99231.94;;;23.29;40.31
78488;BME280;67885;49.758;9.582;2023-07-13T05:40:35;99229.22;;;23.29;40.53
78488;BME280;67885;49.758;9.582;2023-07-13T05:43:01;99238.16;;;23.30;38.98
78488;BME280;67885;49.758;9.582;2023-07-13T05:45:28;99232.09;;;23.28;39.00
78488;BME280;67885;49.758;9.582;2023-07-13T05:47:54;99242.75;;;23.36;39.57
78488;BME280;67885;49.758;9.582;2023-07-13T05:50:21;99238.19;;;23.50;39.36
78488;BME280;67885;49.758;9.582;2023-07-13T05:52:48;99240.69;;;23.65;39.08
78488;BME280;67885;49.758;9.582;2023-07-13T05:55:14;99243.63;;;23.77;38.79
78488;BME280;67885;49.758;9.582;2023-07-13T05:57:42;99241.75;;;23.84;37.02
78488;BME280;67885;49.758;9.582;2023-07-13T06:00:10;99245.28;;;23.91;37.51
78488;BME280;67885;49.758;9.582;2023-07-13T06:02:37;99252.81;;;24.02;38.77
78488;BME280;67885;49.758;9.582;2023-07-13T06:05:04;99255.06;;;24.19;39.36
78488;BME280;67885;49.758;9.582;2023-07-13T06:07:31;99260.84;;;24.36;37.55
78488;BME280;67885;49.758;9.582;2023-07-13T06:09:57;99255.81;;;24.53;37.17
78488;BME280;67885;49.758;9.582;2023-07-13T06:12:24;99259.34;;;24.67;37.74
78488;BME280;67885;49.758;9.582;2023-07-13T06:14:52;99267.84;;;24.77;37.34
78488;BME280;67885;49.758;9.582;2023-07-13T06:17:19;99258.84;;;24.90;37.36
78488;BME280;67885;49.758;9.582;2023-07-13T06:19:45;99266.50;;;25.00;36.45
78488;BME280;67885;49.758;9.582;2023-07-13T06:22:12;99241.28;;;24.99;36.39
78488;BME280;67885;49.758;9.582;2023-07-13T06:24:39;99267.66;;;25.17;36.17
78488;BME280;67885;49.758;9.582;2023-07-13T06:27:05;99266.75;;;25.30;36.54
78488;BME280;67885;49.758;9.582;2023-07-13T06:29:33;99264.88;;;25.37;35.12
78488;BME280;67885;49.758;9.582;2023-07-13T06:32:01;99265.88;;;25.43;36.26
78488;BME280;67885;49.758;9.582;2023-07-13T06:34:27;99267.09;;;25.47;35.87
78488;BME280;67885;49.758;9.582;2023-07-13T06:36:54;99267.22;;;25.59;35.52
78488;BME280;67885;49.758;9.582;2023-07-13T06:39:20;99261.94;;;25.71;35.60
78488;BME280;67885;49.758;9.582;2023-07-13T06:41:47;99263.69;;;25.84;35.10
78488;BME280;67885;49.758;9.582;2023-07-13T06:44:14;99270.69;;;25.98;35.24
78488;BME280;67885;49.758;9.582;2023-07-13T06:46:40;99273.97;;;26.07;35.01
78488;BME280;67885;49.758;9.582;2023-07-13T06:49:09;99271.13;;;26.20;34.89
78488;BME280;67885;49.758;9.582;2023-07-13T06:51:36;99262.97;;;26.20;34.47
78488;BME280;67885;49.758;9.582;2023-07-13T06:54:03;99273.72;;;26.34;34.23
78488;BME280;67885;49.758;9.582;2023-07-13T06:56:29;99276.38;;;26.40;33.04
78488;BME280;67885;49.758;9.582;2023-07-13T06:58:56;99271.91;;;26.46;33.23
78488;BME280;67885;49.758;9.582;2023-07-13T07:01:23;99274.16;;;26.49;33.87
78488;BME280;67885;49.758;9.582;2023-07-13T07:03:49;99281.75;;;26.66;31.77
78488;BME280;67885;49.758;9.582;2023-07-13T07:06:19;99275.03;;;26.68;31.90
78488;BME280;67885;49.758;9.582;2023-07-13T07:08:49;99272.50;;;26.67;31.78
78488;BME280;67885;49.758;9.582;2023-07-13T07:11:19;99285.41;;;26.78;32.06
78488;BME280;67885;49.758;9.582;2023-07-13T07:13:47;99289.09;;;26.84;31.71
78488;BME280;67885;49.758;9.582;2023-07-13T07:16:14;99289.66;;;26.86;31.68
78488;BME280;67885;49.758;9.582;2023-07-13T07:18:41;99285.22;;;26.91;30.92
78488;BME280;67885;49.758;9.582;2023-07-13T07:21:07;99290.13;;;27.01;32.00
78488;BME280;67885;49.758;9.582;2023-07-13T07:23:35;99287.25;;;27.15;32.27
78488;BME280;67885;49.758;9.582;2023-07-13T07:26:02;99286.44;;;27.26;31.49
78488;BME280;67885;49.758;9.582;2023-07-13T07:28:29;99294.75;;;27.31;30.54
78488;BME280;67885;49.758;9.582;2023-07-13T07:30:57;99290.91;;;27.39;31.17
78488;BME280;67885;49.758;9.582;2023-07-13T07:33:24;99291.16;;;27.49;30.80
78488;BME280;67885;49.758;9.582;2023-07-13T07:35:51;99293.56;;;27.57;30.20
78488;BME280;67885;49.758;9.582;2023-07-13T07:38:18;99291.13;;;27.68;29.90
78488;BME280;67885;49.758;9.582;2023-07-13T07:40:46;99293.34;;;27.71;29.46
78488;BME280;67885;49.758;9.582;2023-07-13T07:43:13;99284.63;;;27.69;30.50
78488;BME280;67885;49.758;9.582;2023-07-13T07:45:40;99284.75;;;27.86;29.70
78488;BME280;67885;49.758;9.582;2023-07-13T07:48:07;99287.59;;;27.91;28.81
78488;BME280;67885;49.758;9.582;2023-07-13T07:50:35;99288.06;;;27.88;29.84
78488;BME280;67885;49.758;9.582;2023-07-13T07:53:02;99290.22;;;27.98;29.32
78488;BME280;67885;49.758;9.582;2023-07-13T07:55:28;99287.75;;;28.08;29.04
78488;BME280;67885;49.758;9.582;2023-07-13T07:57:57;99288.34;;;28.10;29.21
78488;BME280;67885;49.758;9.582;2023-07-13T08:00:24;99295.13;;;28.19;29.31
78488;BME280;67885;49.758;9.582;2023-07-13T08:02:50;99295.94;;;28.32;29.67
78488;BME280;67885;49.758;9.582;2023-07-13T08:05:17;99306.59;;;28.45;29.37
78488;BME280;67885;49.758;9.582;2023-07-13T08:07:43;99288.34;;;28.57;28.89
78488;BME280;67885;49.758;9.582;2023-07-13T08:10:10;99292.00;;;28.63;27.84
78488;BME280;67885;49.758;9.582;2023-07-13T08:12:38;99293.81;;;28.69;29.19
78488;BME280;67885;49.758;9.582;2023-07-13T08:15:10;99300.75;;;28.77;28.18
78488;BME280;67885;49.758;9.582;2023-07-13T08:17:37;99299.00;;;28.83;28.97
78488;BME280;67885;49.758;9.582;2023-07-13T08:20:04;99297.66;;;28.85;28.10
78488;BME280;67885;49.758;9.582;2023-07-13T08:22:31;99301.94;;;28.81;28.22
78488;BME280;67885;49.758;9.582;2023-07-13T08:24:59;99301.63;;;28.77;27.90
78488;BME280;67885;49.758;9.582;2023-07-13T08:27:27;99297.34;;;28.82;28.42
78488;BME280;67885;49.758;9.582;2023-07-13T08:29:54;99293.75;;;28.81;27.36
78488;BME280;67885;49.758;9.582;2023-07-13T08:32:23;99294.84;;;28.80;29.18
78488;BME280;67885;49.758;9.582;2023-07-13T08:34:50;99293.75;;;28.93;27.93
78488;BME280;67885;49.758;9.582;2023-07-13T08:37:17;99286.72;;;28.97;27.09
78488;BME280;67885;49.758;9.582;2023-07-13T08:39:45;99267.34;;;28.82;28.44
78488;BME280;67885;49.758;9.582;2023-07-13T08:42:18;99300.22;;;29.04;28.49
78488;BME280;67885;49.758;9.582;2023-07-13T08:44:58;99305.53;;;29.10;28.31
78488;BME280;67885;49.758;9.582;2023-07-13T08:47:35;99306.06;;;29.24;28.13
78488;BME280;67885;49.758;9.582;2023-07-13T08:50:05;99294.91;;;29.38;28.08
78488;BME280;67885;49.758;9.582;2023-07-13T08:52:37;99292.88;;;29.45;28.25
78488;BME280;67885;49.758;9.582;2023-07-13T08:55:12;99307.44;;;29.51;27.10
78488;BME280;67885;49.758;9.582;2023-07-13T08:57:41;99288.50;;;29.61;27.37
78488;BME280;67885;49.758;9.582;2023-07-13T09:00:10;99301.16;;;29.67;26.29
78488;BME280;67885;49.758;9.582;2023-07-13T09:02:45;99297.84;;;29.65;27.33
78488;BME280;67885;49.758;9.582;2023-07-13T09:05:17;99278.91;;;29.58;27.39
78488;BME280;67885;49.758;9.582;2023-07-13T09:08:02;99299.94;;;29.75;26.74
78488;BME280;67885;49.758;9.582;2023-07-13T09:10:35;99291.50;;;29.76;26.72
78488;BME280;67885;49.758;9.582;2023-07-13T09:13:20;99292.56;;;29.75;27.59
78488;BME280;67885;49.758;9.582;2023-07-13T09:15:50;99293.34;;;29.71;26.79
78488;BME280;67885;49.758;9.582;2023-07-13T09:18:26;99277.41;;;29.51;26.97
78488;BME280;67885;49.758;9.582;2023-07-13T09:20:58;99299.81;;;29.53;26.20
78488;BME280;67885;49.758;9.582;2023-07-13T09:23:29;99295.25;;;29.41;27.10
78488;BME280;67885;49.758;9.582;2023-07-13T09:26:02;99298.94;;;29.35;27.45
78488;BME280;67885;49.758;9.582;2023-07-13T09:28:37;99290.19;;;29.33;27.05
78488;BME280;67885;49.758;9.582;2023-07-13T09:31:10;99289.16;;;29.22;27.35
78488;BME280;67885;49.758;9.582;2023-07-13T09:33:40;99299.59;;;29.14;27.86
78488;BME280;67885;49.758;9.582;2023-07-13T09:36:19;99310.97;;;29.22;28.72
78488;BME280;67885;49.758;9.582;2023-07-13T09:38:48;99291.28;;;29.20;27.07
78488;BME280;67885;49.758;9.582;2023-07-13T09:41:27;99295.31;;;29.18;27.37
78488;BME280;67885;49.758;9.582;2023-07-13T09:44:17;99295.63;;;29.04;27.85
78488;BME280;67885;49.758;9.582;2023-07-13T09:46:47;99303.56;;;29.06;27.49
78488;BME280;67885;49.758;9.582;2023-07-13T09:49:23;99291.22;;;29.03;27.80
78488;BME280;67885;49.758;9.582;2023-07-13T09:51:58;99283.97;;;29.09;28.30
78488;BME280;67885;49.758;9.582;2023-07-13T09:54:26;99286.91;;;29.19;27.55
78488;BME280;67885;49.758;9.582;2023-07-13T09:56:57;99290.00;;;29.11;27.71
78488;BME280;67885;49.758;9.582;2023-07-13T09:59:28;99295.69;;;29.09;27.59
78488;BME280;67885;49.758;9.582;2023-07-13T10:01:55;99287.28;;;29.11;27.19
78488;BME280;67885;49.758;9.582;2023-07-13T10:04:30;99299.13;;;29.17;27.75
78488;BME280;67885;49.758;9.582;2023-07-13T10:07:06;99296.38;;;29.29;27.67
78488;BME280;67885;49.758;9.582;2023-07-13T10:09:33;99300.72;;;29.41;27.48
78488;BME280;67885;49.758;9.582;2023-07-13T10:12:00;99284.34;;;29.41;26.67
78488;BME280;67885;49.758;9.582;2023-07-13T10:14:28;99304.41;;;29.35;26.47
78488;BME280;67885;49.758;9.582;2023-07-13T10:16:59;99296.47;;;29.22;25.85
78488;BME280;67885;49.758;9.582;2023-07-13T10:19:31;99308.13;;;29.17;26.45
78488;BME280;67885;49.758;9.582;2023-07-13T10:22:10;99290.53;;;28.96;26.63
78488;BME280;67885;49.758;9.582;2023-07-13T10:24:41;99299.97;;;29.05;27.44
78488;BME280;67885;49.758;9.582;2023-07-13T10:27:15;99303.06;;;29.09;27.61
78488;BME280;67885;49.758;9.582;2023-07-13T10:29:46;99303.75;;;29.16;27.22
78488;BME280;67885;49.758;9.582;2023-07-13T10:32:14;99287.72;;;29.20;27.44
78488;BME280;67885;49.758;9.582;2023-07-13T10:34:46;99295.16;;;29.24;26.02
78488;BME280;67885;49.758;9.582;2023-07-13T10:37:18;99300.19;;;29.27;27.37
78488;BME280;67885;49.758;9.582;2023-07-13T10:39:47;99295.75;;;29.38;27.17
78488;BME280;67885;49.758;9.582;2023-07-13T10:42:23;99302.78;;;29.51;27.71
78488;BME280;67885;49.758;9.582;2023-07-13T10:44:51;99302.06;;;29.56;26.63
78488;BME280;67885;49.758;9.582;2023-07-13T10:47:18;99296.78;;;29.66;27.88
78488;BME280;67885;49.758;9.582;2023-07-13T10:49:56;99303.66;;;29.69;26.10
78488;BME280;67885;49.758;9.582;2023-07-13T10:52:42;99292.47;;;29.53;25.73
78488;BME280;67885;49.758;9.582;2023-07-13T10:55:31;99304.84;;;29.44;25.70
78488;BME280;67885;49.758;9.582;2023-07-13T10:58:00;99303.84;;;29.33;26.38
78488;BME280;67885;49.758;9.582;2023-07-13T11:00:31;99304.44;;;29.23;27.06
78488;BME280;67885;49.758;9.582;2023-07-13T11:03:01;99286.31;;;29.29;28.05
78488;BME280;67885;49.758;9.582;2023-07-13T11:05:32;99290.63;;;29.42;27.08
78488;BME280;67885;49.758;9.582;2023-07-13T11:08:14;99281.63;;;29.41;26.59
78488;BME280;67885;49.758;9.582;2023-07-13T11:10:48;99273.97;;;29.26;26.48
78488;BME280;67885;49.758;9.582;2023-07-13T11:13:38;99290.97;;;29.46;25.93
78488;BME280;67885;49.758;9.582;2023-07-13T11:16:35;99295.34;;;29.47;26.99
78488;BME280;67885;49.758;9.582;2023-07-13T11:19:25;99283.03;;;29.44;26.53
78488;BME280;67885;49.758;9.582;2023-07-13T11:22:12;99281.97;;;29.45;27.02
78488;BME280;67885;49.758;9.582;2023-07-13T11:25:00;99286.16;;;29.53;26.28
78488;BME280;67885;49.758;9.582;2023-07-13T11:27:39;99286.06;;;29.48;26.53
78488;BME280;67885;49.758;9.582;2023-07-13T11:30:30;99289.91;;;29.47;26.47
78488;BME280;67885;49.758;9.582;2023-07-13T11:33:14;99290.63;;;29.42;25.88
78488;BME280;67885;49.758;9.582;2023-07-13T11:35:49;99294.09;;;29.37;26.37
78488;BME280;67885;49.758;9.582;2023-07-13T11:38:21;99289.28;;;29.27;26.49
78488;BME280;67885;49.758;9.582;2023-07-13T11:40:51;99286.06;;;29.19;27.01
78488;BME280;67885;49.758;9.582;2023-07-13T11:43:19;99285.25;;;29.18;27.39
78488;BME280;67885;49.758;9.582;2023-07-13T11:45:49;99284.75;;;29.21;27.02
78488;BME280;67885;49.758;9.582;2023-07-13T11:48:22;99287.47;;;29.21;27.24
78488;BME280;67885;49.758;9.582;2023-07-13T11:50:56;99289.38;;;29.21;27.28
78488;BME280;67885;49.758;9.582;2023-07-13T11:53:28;99248.47;;;28.92;27.11
78488;BME280;67885;49.758;9.582;2023-07-13T11:55:57;99284.91;;;29.15;26.37
78488;BME280;67885;49.758;9.582;2023-07-13T11:58:25;99255.06;;;28.96;27.46
78488;BME280;67885;49.758;9.582;2023-07-13T12:00:57;99288.78;;;29.19;26.63
78488;BME280;67885;49.758;9.582;2023-07-13T12:03:26;99287.22;;;29.23;27.44
78488;BME280;67885;49.758;9.582;2023-07-13T12:05:59;99290.44;;;29.32;27.09
78488;BME280;67885;49.758;9.582;2023-07-13T12:08:29;99288.63;;;29.37;26.92
78488;BME280;67885;49.758;9.582;2023-07-13T12:10:58;99266.22;;;29.35;26.21
78488;BME280;67885;49.758;9.582;2023-07-13T12:13:27;99285.75;;;29.44;26.49
78488;BME280;67885;49.758;9.582;2023-07-13T12:15:56;99292.03;;;29.44;26.47
78488;BME280;67885;49.758;9.582;2023-07-13T12:18:29;99293.94;;;29.44;26.23
78488;BME280;67885;49.758;9.582;2023-07-13T12:20:58;99293.94;;;29.44;26.25
78488;BME280;67885;49.758;9.582;2023-07-13T12:23:30;99294.50;;;29.46;27.20
78488;BME280;67885;49.758;9.582;2023-07-13T12:26:01;99288.66;;;29.54;27.40
78488;BME280;67885;49.758;9.582;2023-07-13T12:28:33;99267.63;;;29.38;26.86
78488;BME280;67885;49.758;9.582;2023-07-13T12:31:04;99289.66;;;29.65;26.75
78488;BME280;67885;49.758;9.582;2023-07-13T12:33:33;99297.38;;;29.68;26.59
78488;BME280;67885;49.758;9.582;2023-07-13T12:36:05;99289.41;;;29.67;26.67
78488;BME280;67885;49.758;9.582;2023-07-13T12:38:34;99286.22;;;29.70;26.63
78488;BME280;67885;49.758;9.582;2023-07-13T12:41:02;99293.53;;;29.69;25.86
78488;BME280;67885;49.758;9.582;2023-07-13T12:43:35;99259.84;;;29.30;26.07
78488;BME280;67885;49.758;9.582;2023-07-13T12:46:16;99258.78;;;29.31;26.18
78488;BME280;67885;49.758;9.582;2023-07-13T12:48:43;99296.78;;;29.66;26.08
78488;BME280;67885;49.758;9.582;2023-07-13T12:51:13;99294.41;;;29.70;26.30
78488;BME280;67885;49.758;9.582;2023-07-13T12:53:45;99288.69;;;29.71;26.12
78488;BME280;67885;49.758;9.582;2023-07-13T12:56:19;99282.72;;;29.74;26.42
78488;BME280;67885;49.758;9.582;2023-07-13T12:58:48;99289.84;;;29.75;25.50
78488;BME280;67885;49.758;9.582;2023-07-13T13:01:21;99298.03;;;29.75;26.32
78488;BME280;67885;49.758;9.582;2023-07-13T13:03:50;99287.13;;;29.75;25.64
78488;BME280;67885;49.758;9.582;2023-07-13T13:06:24;99290.91;;;29.74;26.79
78488;BME280;67885;49.758;9.582;2023-07-13T13:08:54;99294.00;;;29.78;26.87
78488;BME280;67885;49.758;9.582;2023-07-13T13:11:23;99291.59;;;29.82;25.98
78488;BME280;67885;49.758;9.582;2023-07-13T13:13:51;99294.91;;;29.84;25.98
78488;BME280;67885;49.758;9.582;2023-07-13T13:16:21;99283.22;;;29.71;26.36
78488;BME280;67885;49.758;9.582;2023-07-13T13:18:51;99299.53;;;29.83;26.53
78488;BME280;67885;49.758;9.582;2023-07-13T13:21:19;99298.69;;;29.83;25.54
78488;BME280;67885;49.758;9.582;2023-07-13T13:23:46;99299.19;;;29.80;26.84
78488;BME280;67885;49.758;9.582;2023-07-13T13:26:15;99297.06;;;29.82;25.65